Flight Track Log - Related Links

Times and Time Zones

All times are in EST time to prevent confusion due to time zone crossing. See the SWA2068 flight status page for this flight to view local times or setup timezone preferences in your user account.

Time Position Orientation Groundspeed Altitude Reporting Facility
EST Latitude Longitude Course Direction KTS MPH feet Rate Location/Type
04:38PM 26.0750 -80.1319 89° East 162 186 1,100  Level Miami Center
04:38PM 26.0756 -80.1042 89° East 175 201 1,900 1,237 Climbing Miami Center
04:39PM 26.0794 -80.0258 87° East 229 264 3,100 1,276 Climbing Miami Center
04:40PM 26.1197 -79.9944 35° Northeast 216 249 4,600 2,066 Climbing Miami Center
04:41PM 26.1753 -80.0400 324° Northwest 239 275 7,300 2,400 Climbing Miami Center
04:41PM 26.1814 -80.0425 340° North 236 272 7,200 1,594 Descending Miami Center
04:42PM 26.2222 -80.0828 318° Northwest 236 272 9,000 1,350 Climbing Miami Center
04:43PM 26.2333 -80.1572 279° West 214 246 9,900 500 Climbing Miami Center
04:44PM 26.2461 -80.2386 280° West 242 278 10,000 950 Climbing Miami Center
04:45PM 26.2581 -80.3478 277° West 325 374 11,800 2,200 Climbing Miami Center
04:46PM 26.2744 -80.4503 280° West 354 407 14,400 2,650 Climbing Miami Center
04:47PM 26.2967 -80.5597 283° West 359 413 17,100 2,300 Climbing Miami Center
04:48PM 26.3528 -80.6519 304° West 370 426 19,000 2,400 Climbing Miami Center
04:49PM 26.4236 -80.7378 313° West 375 432 21,900 2,200 Climbing Miami Center
04:50PM 26.5161 -80.7989 329° Northwest 374 430 23,400 1,550 Climbing Miami Center
04:51PM 26.6147 -80.8578 332° Northwest 391 450 25,000 1,600 Climbing Miami Center
04:52PM 26.7044 -80.9331 323° Northwest 405 466 26,600 1,550 Climbing Miami Center
04:53PM 26.7981 -81.0131 323° Northwest 417 480 28,100 1,600 Climbing Miami Center
04:54PM 26.8819 -81.0811 324° Northwest 417 480 29,800 1,750 Climbing Miami Center
04:55PM 26.9817 -81.1639 324° Northwest 412 474 31,600 1,500 Climbing Miami Center
04:56PM 27.0733 -81.2419 323° Northwest 405 466 32,800 1,150 Climbing Miami Center
04:57PM 27.1650 -81.3156 324° Northwest 405 466 33,900 1,200 Climbing Miami Center
04:58PM 27.2461 -81.3886 321° Northwest 410 472 35,200 465 Climbing Miami Center
05:02PM 27.5661 -81.6567 323° Northwest 413 475 36,000 177 Climbing Jacksonville Center
05:03PM 27.6564 -81.7331 323° Northwest 413 475 36,000  Level Jacksonville Center
05:04PM 27.7594 -81.8139 325° Northwest 418 481 36,000  Level Jacksonville Center
05:05PM 27.8497 -81.8950 322° Northwest 418 481 36,000  Level Jacksonville Center
05:06PM 27.9400 -81.9742 322° Northwest 413 475 36,000  Level Jacksonville Center
05:07PM 28.0283 -82.0508 323° Northwest 408 470 36,000  Level Jacksonville Center
05:08PM 28.1164 -82.1300 322° Northwest 408 470 36,000  Level Jacksonville Center
05:09PM 28.2044 -82.2094 322° Northwest 402 463 36,000  Level Jacksonville Center
05:10PM 28.2925 -82.2867 322° Northwest 402 463 36,000  Level Jacksonville Center
05:11PM 28.3783 -82.3664 321° Northwest 402 463 36,000  Level Jacksonville Center
05:12PM 28.4683 -82.4464 322° Northwest 402 463 36,000  Level Jacksonville Center
05:13PM 28.5522 -82.5239 321° Northwest 402 463 36,000  Level Jacksonville Center
05:14PM 28.6442 -82.6039 323° Northwest 402 463 36,000  Level Jacksonville Center
05:15PM 28.7278 -82.6794 322° Northwest 396 456 36,000  Level Jacksonville Center
05:16PM 28.8136 -82.7600 321° Northwest 396 456 36,000  Level Jacksonville Center
05:17PM 28.9011 -82.8381 322° Northwest 402 463 36,000  Level Jacksonville Center
05:18PM 28.9889 -82.9186 321° Northwest 402 463 36,000  Level Jacksonville Center
05:19PM 29.0744 -82.9947 322° Northwest 402 463 36,000  Level Jacksonville Center
05:20PM 29.1494 -83.0853 313° West 396 456 36,000  Level Jacksonville Center
05:21PM 29.2161 -83.1828 308° West 396 456 36,000  Level Jacksonville Center
05:22PM 29.2742 -83.2711 307° West 396 456 36,000  Level Jacksonville Center
05:23PM 29.3428 -83.3714 308° West 396 456 36,000  Level Jacksonville Center
05:24PM 29.4114 -83.4694 309° West 391 450 36,000  Level Jacksonville Center
05:25PM 29.4778 -83.5678 308° West 391 450 36,000  Level Jacksonville Center
05:26PM 29.5417 -83.6683 306° West 391 450 36,000  Level Jacksonville Center
05:27PM 29.6100 -83.7669 309° West 391 450 36,000  Level Jacksonville Center
05:28PM 29.6761 -83.8678 307° West 391 450 36,000  Level Jacksonville Center
05:29PM 29.7400 -83.9619 308° West 386 444 36,000  Level Jacksonville Center
05:30PM 29.8061 -84.0606 308° West 386 444 36,000  Level Jacksonville Center
05:31PM 29.8719 -84.1572 308° West 391 450 36,000  Level Jacksonville Center
05:32PM 29.9417 -84.2636 307° West 391 450 36,000  Level Jacksonville Center
05:33PM 30.0075 -84.3628 307° West 385 443 36,000  Level Jacksonville Center
05:34PM 30.0711 -84.4600 307° West 385 443 36,000  Level Jacksonville Center
05:35PM 30.1347 -84.5544 308° West 385 443 36,000  Level Jacksonville Center
05:36PM 30.2000 -84.6542 307° West 391 450 36,000  Level Jacksonville Center
05:37PM 30.2656 -84.7517 308° West 390 449 36,000  Level Jacksonville Center
05:38PM 30.3289 -84.8492 307° West 390 449 36,000  Level Jacksonville Center
05:39PM 30.3900 -84.9442 307° West 385 443 36,000  Level Jacksonville Center
05:40PM 30.4531 -85.0444 306° West 385 443 36,000  Level Jacksonville Center
05:41PM 30.5181 -85.1422 308° West 385 443 36,000  Level Jacksonville Center
05:42PM 30.5811 -85.2428 306° West 385 443 36,000  Level Jacksonville Center
05:43PM 30.6439 -85.3408 307° West 390 449 36,000  Level Jacksonville Center
05:44PM 30.7086 -85.4417 307° West 390 449 36,000  Level Jacksonville Center
05:45PM 30.7736 -85.5400 308° West 390 449 36,000  Level Jacksonville Center
05:46PM 30.8361 -85.6386 306° West 390 449 36,000  Level Jacksonville Center
05:47PM 30.8986 -85.7372 306° West 390 449 36,000  Level Jacksonville Center
05:48PM 30.9631 -85.8386 307° West 390 449 36,000  Level Jacksonville Center
05:49PM 31.0256 -85.9375 306° West 390 449 36,000  Level Jacksonville Center
05:50PM 31.0878 -86.0389 306° West 390 449 36,000  Level Jacksonville Center
05:51PM 31.1814 -86.1819 307° West 373 429 36,000  Level Atlanta Center
05:52PM 31.2422 -86.2806 306° West 373 429 36,000  Level Atlanta Center
05:53PM 31.3069 -86.3842 306° West 378 435 36,000  Level Atlanta Center
05:54PM 31.3719 -86.4856 307° West 388 447 36,000  Level Atlanta Center
05:55PM 31.4325 -86.5869 305° West 388 447 36,000  Level Atlanta Center
05:56PM 31.4950 -86.6861 306° West 388 447 36,000  Level Atlanta Center
05:57PM 31.5594 -86.7878 307° West 388 447 36,000  Level Atlanta Center
05:58PM 31.6239 -86.8922 306° West 388 447 36,000  Level Atlanta Center
05:59PM 31.6842 -86.9917 305° West 388 447 36,000  Level Atlanta Center
06:00PM 31.7464 -87.0914 306° West 388 447 36,000  Level Atlanta Center
06:01PM 31.8086 -87.1939 306° West 388 447 36,000  Level Atlanta Center
06:02PM 31.8747 -87.2964 307° West 388 447 36,000  Level Atlanta Center
06:03PM 31.9469 -87.4117 306° West 393 452 36,000  Level Atlanta Center
06:04PM 31.9986 -87.5042 303° West 387 445 36,000  Level Atlanta Center
06:05PM 32.0664 -87.6097 307° West 387 445 36,000  Level Atlanta Center
06:07PM 32.1919 -87.8178 306° West 390 449 36,000 337 Level Memphis Center
06:08PM 32.2550 -87.9228 305° West 390 449 37,000 976 Climbing Memphis Center
06:09PM 32.3150 -88.0242 305° West 384 442 38,000 488 Climbing Memphis Center
06:10PM 32.3772 -88.1253 306° West 382 440 38,000  Level Memphis Center
06:12PM 32.4389 -88.2283 305° West 382 440 38,000  Level Memphis Center
06:13PM 32.5050 -88.3408 305° West 385 443 38,000  Level Memphis Center
06:14PM 32.5669 -88.4456 305° West 386 444 38,000  Level Memphis Center
06:15PM 32.6292 -88.5497 305° West 387 445 38,000  Level Memphis Center
06:16PM 32.6914 -88.6536 305° West 387 445 38,000  Level Memphis Center
06:17PM 32.7517 -88.7575 305° West 387 445 38,000  Level Memphis Center
06:18PM 32.8242 -88.8817 305° West 387 445 38,000  Level Memphis Center
06:19PM 32.8850 -88.9850 305° West 387 445 38,000  Level Memphis Center
06:20PM 32.9450 -89.0872 305° West 385 443 38,000  Level Memphis Center
06:21PM 33.0047 -89.1889 305° West 385 443 38,000  Level Memphis Center
06:22PM 33.0644 -89.2908 305° West 383 441 38,000  Level Memphis Center
06:23PM 33.1236 -89.3931 305° West 383 441 38,000  Level Memphis Center
06:24PM 33.1947 -89.5164 305° West 382 440 38,000  Level Memphis Center
06:25PM 33.2547 -89.6186 305° West 382 440 38,000  Level Memphis Center
06:26PM 33.3139 -89.7231 304° West 382 440 38,000  Level Memphis Center
06:27PM 33.3733 -89.8272 304° West 382 440 38,000  Level Memphis Center
06:28PM 33.4319 -89.9308 304° West 382 440 38,000  Level Memphis Center
06:29PM 33.5033 -90.0553 305° West 382 440 38,000  Level Memphis Center
06:30PM 33.5617 -90.1586 304° West 381 438 38,000  Level Memphis Center
06:31PM 33.6197 -90.2603 304° West 379 436 38,000  Level Memphis Center
06:32PM 33.6775 -90.3614 304° West 374 430 38,000  Level Memphis Center
06:33PM 33.7350 -90.4647 304° West 373 429 38,000  Level Memphis Center
06:34PM 33.7914 -90.5658 304° West 372 428 38,000  Level Memphis Center
06:35PM 33.8481 -90.6675 304° West 371 427 38,000  Level Memphis Center
06:36PM 33.9169 -90.7897 304° West 370 426 38,000  Level Memphis Center
06:37PM 33.9753 -90.8914 305° West 370 426 38,000  Level Memphis Center
06:38PM 34.0308 -90.9961 303° West 371 427 38,000  Level Memphis Center
06:39PM 34.1186 -91.0781 322° Northwest 394 453 38,000  Level Memphis Center
06:40PM 34.2275 -91.1278 339° North 420 483 38,000  Level Memphis Center
06:41PM 34.3336 -91.1792 338° Northwest 418 481 38,000  Level Memphis Center
06:42PM 34.4425 -91.2256 341° North 417 480 38,000  Level Memphis Center
06:43PM 34.5503 -91.2739 340° North 417 480 38,000  Level Memphis Center
06:44PM 34.6333 -91.3486 323° Northwest 394 453 38,000  Level Memphis Center
06:45PM 34.6775 -91.4550 297° West 359 413 38,000  Level Memphis Center
06:46PM 34.7306 -91.5844 297° West 357 411 38,000  Level Memphis Center
06:47PM 34.7753 -91.6919 297° West 357 411 38,000  Level Memphis Center
06:48PM 34.8186 -91.8014 296° West 357 411 38,000  Level Memphis Center
06:49PM 34.8633 -91.9106 297° West 358 412 38,000  Level Memphis Center
06:50PM 34.9078 -92.0217 296° West 362 417 38,000  Level Memphis Center
06:51PM 34.9522 -92.1300 297° West 362 417 38,000  Level Memphis Center
06:52PM 34.9958 -92.2403 296° West 362 417 38,000  Level Memphis Center
06:53PM 35.0400 -92.3481 297° West 361 415 38,000  Level Memphis Center
06:54PM 35.0833 -92.4578 296° West 360 414 38,000  Level Memphis Center
06:56PM 35.1356 -92.5892 296° West 360 414 38,000  Level Memphis Center
06:57PM 35.1786 -92.6981 296° West 359 413 38,000  Level Memphis Center
06:58PM 35.2169 -92.7961 296° West 359 413 38,000  Level Memphis Center
06:59PM 35.2592 -92.9047 295° West 358 412 38,000  Level Memphis Center
07:00PM 35.3111 -93.0361 296° West 358 412 38,000  Level Memphis Center
07:01PM 35.3539 -93.1450 296° West 358 412 38,000  Level Memphis Center
07:02PM 35.3956 -93.2517 296° West 355 409 38,000  Level Memphis Center
07:03PM 35.4364 -93.3558 296° West 347 399 38,000  Level Memphis Center
07:04PM 35.4775 -93.4603 296° West 344 396 38,000  Level Memphis Center
07:05PM 35.5186 -93.5661 296° West 344 396 38,000  Level Memphis Center
07:06PM 35.5597 -93.6733 295° West 344 396 38,000  Level Memphis Center
07:07PM 35.5992 -93.7781 295° West 343 395 38,000  Level Memphis Center
07:08PM 35.6403 -93.8842 296° West 343 395 38,000  Level Memphis Center
07:09PM 35.6878 -94.0106 295° West 343 395 38,000  Level Memphis Center
07:10PM 35.7228 -94.0994 296° West 340 391 38,000  Level Memphis Center
07:11PM 35.7683 -94.2261 294° West 339 390 38,000  Level Memphis Center
07:12PM 35.8089 -94.3322 295° West 339 390 38,000  Level Memphis Center
07:13PM 35.8492 -94.4381 295° West 339 390 38,000  Level Memphis Center
07:14PM 35.8881 -94.5436 294° West 339 390 38,000  Level Memphis Center
07:15PM 35.9283 -94.6519 295° West 342 394 38,000  Level Memphis Center
07:16PM 35.9528 -94.7178 295° West 342 394 38,000  Level Kansas City Center
07:17PM 35.9936 -94.8275 295° West 344 396 38,000  Level Kansas City Center
07:18PM 36.0425 -94.9592 295° West 347 399 38,000  Level Kansas City Center
07:19PM 36.0828 -95.0689 294° West 348 400 38,000  Level Kansas City Center
07:20PM 36.1203 -95.1678 295° West 346 398 38,000  Level Kansas City Center
07:21PM 36.1586 -95.2761 294° West 346 398 38,000  Level Kansas City Center
07:22PM 36.1981 -95.3858 294° West 346 398 38,000  Level Kansas City Center
07:23PM 36.2475 -95.5178 295° West 348 400 38,000  Level Kansas City Center
07:24PM 36.2872 -95.6267 294° West 348 400 38,000  Level Kansas City Center
07:25PM 36.3267 -95.7372 294° West 348 400 38,000  Level Kansas City Center
07:26PM 36.3656 -95.8461 294° West 349 402 38,000  Level Kansas City Center
07:27PM 36.4061 -95.9581 294° West 350 403 38,000  Level Kansas City Center
07:28PM 36.4453 -96.0700 294° West 350 403 38,000  Level Kansas City Center
07:29PM 36.4850 -96.1808 294° West 350 403 38,000  Level Kansas City Center
07:30PM 36.5242 -96.2903 294° West 350 403 38,000  Level Kansas City Center
07:31PM 36.5639 -96.4008 294° West 350 403 38,000  Level Kansas City Center
07:32PM 36.6097 -96.5328 293° West 349 402 38,000  Level Kansas City Center
07:33PM 36.6492 -96.6444 294° West 349 402 38,000  Level Kansas City Center
07:34PM 36.6883 -96.7572 293° West 350 403 38,000  Level Kansas City Center
07:35PM 36.7269 -96.8697 293° West 350 403 38,000  Level Kansas City Center
07:36PM 36.7669 -96.9828 294° West 353 406 38,000  Level Kansas City Center
07:37PM 36.8056 -97.0953 293° West 353 406 38,000  Level Kansas City Center
07:38PM 36.8442 -97.2089 293° West 353 406 38,000  Level Kansas City Center
07:39PM 36.8831 -97.3225 293° West 353 406 38,000  Level Kansas City Center
07:40PM 36.9217 -97.4378 293° West 355 409 38,000  Level Kansas City Center
07:41PM 36.9619 -97.5531 294° West 356 410 38,000  Level Kansas City Center
07:42PM 37.0006 -97.6697 293° West 358 412 38,000  Level Kansas City Center
07:43PM 37.0456 -97.8092 292° West 358 412 38,000  Level Kansas City Center
07:44PM 37.0856 -97.9242 294° West 358 412 38,000  Level Kansas City Center
07:45PM 37.1239 -98.0394 293° West 358 412 38,000  Level Kansas City Center
07:46PM 37.1628 -98.1564 293° West 358 412 38,000  Level Kansas City Center
07:47PM 37.1994 -98.2708 292° West 358 412 38,000  Level Kansas City Center
07:48PM 37.2375 -98.3853 293° West 358 412 38,000  Level Kansas City Center
07:49PM 37.2750 -98.5006 292° West 357 411 38,000  Level Kansas City Center
07:50PM 37.3125 -98.6133 293° West 356 410 38,000  Level Kansas City Center
07:51PM 37.3508 -98.7297 293° West 356 410 38,000  Level Kansas City Center
07:52PM 37.3883 -98.8486 292° West 359 413 38,000  Level Kansas City Center
07:54PM 37.4353 -98.9936 292° West 369 425 38,000  Level Kansas City Center
07:55PM 37.4744 -99.1131 292° West 370 426 38,000  Level Kansas City Center
07:56PM 37.5144 -99.2353 292° West 371 427 38,000  Level Kansas City Center
07:57PM 37.5528 -99.3578 292° West 373 429 38,000  Level Kansas City Center
07:58PM 37.5925 -99.4792 292° West 374 430 38,000  Level Kansas City Center
07:59PM 37.6353 -99.6144 292° West 374 430 38,000  Level Kansas City Center
08:00PM 37.6711 -99.7286 292° West 371 427 38,000  Level Kansas City Center
08:01PM 37.7058 -99.8400 292° West 364 419 38,000  Level Kansas City Center
08:02PM 37.7472 -99.9711 292° West 363 418 38,000  Level Kansas City Center
08:03PM 37.7814 -100.0822 291° West 360 414 38,000  Level Kansas City Center
08:04PM 37.8219 -100.2114 292° West 358 412 38,000  Level Kansas City Center
08:05PM 37.8561 -100.3236 291° West 358 412 38,000  Level Kansas City Center
08:06PM 37.8894 -100.4339 291° West 357 411 38,000  Level Kansas City Center
08:07PM 37.9281 -100.5622 291° West 356 410 38,000  Level Kansas City Center
08:08PM 37.9617 -100.6722 291° West 353 406 38,000  Level Kansas City Center
08:09PM 38.0008 -100.8017 291° West 354 407 38,000  Level Kansas City Center
08:10PM 38.0342 -100.9125 291° West 354 407 38,000  Level Kansas City Center
08:11PM 38.0744 -101.0458 291° West 359 413 38,000  Level Kansas City Center
08:12PM 38.1083 -101.1586 291° West 359 413 38,000 -389 Level Kansas City Center
08:13PM 38.1369 -101.2536 291° West 360 414 37,300 -881 Descending Denver Center
08:14PM 38.1886 -101.3575 302° West 365 420 36,400 -976 Descending Denver Center
08:15PM 38.2489 -101.4836 301° West 365 420 35,300 -976 Descending Denver Center
08:16PM 38.3028 -101.5936 302° West 380 437 34,400 -976 Descending Denver Center
08:17PM 38.3661 -101.7278 301° West 392 451 33,300 -1,279 Descending Denver Center
08:18PM 38.4228 -101.8422 302° West 396 456 31,800 -1,561 Descending Denver Center
08:19PM 38.4783 -101.9611 301° West 403 464 30,100 -878 Descending Denver Center
08:20PM 38.5436 -102.0983 301° West 406 467 30,000 -49 Descending Denver Center
08:21PM 38.5872 -102.1919 301° West 390 449 30,000  Level Denver Center
08:22PM 38.6572 -102.3397 301° West 382 440 30,000  Level Denver Center
08:23PM 38.7092 -102.4506 301° West 382 440 30,000  Level Denver Center
08:24PM 38.7614 -102.5594 302° West 380 437 30,000  Level Denver Center
08:25PM 38.8206 -102.6872 301° West 371 427 30,000  Level Denver Center
08:26PM 38.8697 -102.7925 301° West 375 432 30,000  Level Denver Center
08:27PM 38.9236 -102.9092 301° West 378 435 30,000  Level Denver Center
08:28PM 38.9786 -103.0267 301° West 384 442 30,000  Level Denver Center
08:29PM 39.0433 -103.1697 300° West 384 442 30,000 -390 Level Denver Center
08:30PM 39.0981 -103.2875 301° West 384 442 29,200 -1,463 Descending Denver Center
08:31PM 39.1514 -103.4036 301° West 382 440 27,000 -2,213 Descending Denver Center
08:32PM 39.2042 -103.5194 300° West 379 436 24,700 -2,195 Descending Denver Center
08:33PM 39.2567 -103.6358 300° West 379 436 22,500 -2,098 Descending Denver Center
08:34PM 39.3069 -103.7461 301° West 364 419 20,400 -2,016 Descending Denver Center
08:35PM 39.3567 -103.8536 301° West 354 407 18,400 -2,049 Descending Denver Center
08:36PM 39.3503 -103.9678 266° West 321 369 16,200 -1,902 Descending Denver Center
08:37PM 39.3331 -104.0836 259° West 323 372 14,500 -1,525 Descending Denver Center
08:38PM 39.3156 -104.2089 260° West 314 361 13,100 -732 Descending Denver Center
08:39PM 39.3039 -104.3044 261° West 280 322 13,000 -387 Descending Denver Center
08:40PM 39.3075 -104.3908 273° West 229 264 12,300 -492 Descending Denver Center
08:41PM 39.3097 -104.4700 272° West 224 258 12,000 -545 Descending Denver Center
08:42PM 39.3328 -104.5450 292° West 235 270 11,200 -488 Descending Denver Center
08:43PM 39.3744 -104.6072 311° West 235 270 11,000 -89 Descending Denver Center
08:45PM 39.4444 -104.6458 337° Northwest 252 290 11,000  Level Denver Center
08:46PM 39.5286 -104.6650 350° North 261 300 11,000 -439 Level Denver Center
08:47PM 39.6008 -104.6639 North 260 299 10,100 -1,122 Descending Denver Center
08:48PM 39.6703 -104.6633 360° North 253 291 8,700 -1,328 Descending Denver Center
08:49PM 39.7350 -104.6619 North 237 273 7,400 -1,180 Descending Denver Center
08:50PM 39.7886 -104.6617 360° North 182 209 6,300 -984 Descending Denver Center
08:51PM 39.8297 -104.6606 North 153 176 5,400 -885 Descending Denver Center
08:53PM 39.8500 -104.6667 North  Level FlightAware Approximate
09:00PM 39.8617 -104.6732 North  Level Estimated
09:01PM 39.8617 -104.6732 North  Level Estimated
09:02PM 39.8617 -104.6732 North  Level Estimated

Login

Don't have an account? Register now (free) for customized features, flight alerts, and more!